Time;durP1;ratioP1;P1;durP2;ratioP2;P2;SDS_P1;SDS_P2;PMS_P1;PMS_P2;Temp;Humidity;BMP_temperature;BMP_pressure;BME280_temperature;BME280_humidity;BME280_pressure;Samples;Min_cycle;Max_cycle;Signal;HPM_P1;HPM_P2
2021/01/14 00:01:35;;;;;;;;;;;11.00;90.90;;;;;;4979024;28;20013;-79
2021/01/14 00:04:01;;;;;;;;;;;11.00;91.10;;;;;;4979446;28;20439;-79
2021/01/14 00:06:27;;;;;;;;;;;10.90;91.00;;;;;;4979204;28;19973;-80
2021/01/14 00:08:54;;;;;;;;;;;11.70;92.20;;;;;;4977478;28;20379;-80
2021/01/14 00:11:20;;;;;;;;;;;10.90;91.70;;;;;;4979811;28;20016;-80
2021/01/14 00:13:46;;;;;;;;;;;11.00;91.70;;;;;;4981024;28;20034;-79
2021/01/14 00:16:12;;;;;;;;;;;10.90;91.30;;;;;;4980845;28;19937;-80
2021/01/14 00:18:39;;;;;;;;;;;10.90;91.60;;;;;;4981076;28;19926;-79
2021/01/14 00:21:05;;;;;;;;;;;10.80;91.90;;;;;;4980600;28;19981;-79
2021/01/14 00:23:33;;;;;;;;;;;10.80;92.40;;;;;;4979678;28;19930;-80
2021/01/14 00:26:00;;;;;;;;;;;10.80;92.00;;;;;;4979330;28;20417;-79
2021/01/14 00:28:26;;;;;;;;;;;10.70;91.50;;;;;;4980217;28;19953;-80
2021/01/14 00:30:52;;;;;;;;;;;10.70;91.40;;;;;;4980920;28;20370;-79
2021/01/14 00:33:18;;;;;;;;;;;10.90;91.10;;;;;;4977614;28;19926;-79
2021/01/14 00:35:44;;;;;;;;;;;10.90;90.90;;;;;;4978033;28;19958;-79
2021/01/14 00:38:11;;;;;;;;;;;10.90;90.90;;;;;;4982141;28;19981;-80
2021/01/14 00:40:37;;;;;;;;;;;10.90;90.90;;;;;;4984447;28;20013;-81
2021/01/14 00:43:04;;;;;;;;;;;10.90;90.80;;;;;;4983783;28;19966;-79
2021/01/14 00:45:32;;;;;;;;;;;11.00;90.50;;;;;;4978256;28;19927;-80
2021/01/14 00:47:59;;;;;;;;;;;11.20;90.30;;;;;;4975382;28;19933;-79
2021/01/14 00:50:26;;;;;;;;;;;10.90;90.30;;;;;;4976229;28;20382;-79
2021/01/14 00:52:53;;;;;;;;;;;11.00;90.40;;;;;;4979403;28;19934;-81
2021/01/14 00:55:19;;;;;;;;;;;11.10;90.30;;;;;;4980473;28;19972;-80
2021/01/14 00:57:46;;;;;;;;;;;11.10;90.20;;;;;;4978293;28;19966;-79
2021/01/14 01:00:14;;;;;;;;;;;11.10;90.20;;;;;;4977355;28;20500;-81
2021/01/14 01:02:41;;;;;;;;;;;11.10;90.40;;;;;;4981557;28;19934;-81
2021/01/14 01:05:08;;;;;;;;;;;11.00;90.30;;;;;;4977544;28;20361;-80
2021/01/14 01:07:34;;;;;;;;;;;10.90;90.30;;;;;;4977772;28;19925;-80
2021/01/14 01:10:01;;;;;;;;;;;11.00;90.10;;;;;;4977051;28;20366;-80
2021/01/14 01:12:29;;;;;;;;;;;10.90;90.40;;;;;;4976554;28;19949;-80
2021/01/14 01:14:56;;;;;;;;;;;11.00;90.00;;;;;;4976099;28;20013;-79
2021/01/14 01:17:22;;;;;;;;;;;11.50;89.90;;;;;;4975648;28;19993;-80
2021/01/14 01:19:48;;;;;;;;;;;11.20;89.30;;;;;;4974856;28;20361;-80
2021/01/14 01:22:17;;;;;;;;;;;11.10;89.10;;;;;;4977155;28;20025;-79
2021/01/14 01:24:45;;;;;;;;;;;10.90;89.60;;;;;;4976661;28;19927;-80
2021/01/14 01:27:11;;;;;;;;;;;11.10;89.50;;;;;;4978312;28;20378;-80
2021/01/14 01:29:38;;;;;;;;;;;11.60;89.70;;;;;;4975759;28;20342;-81
2021/01/14 01:32:04;;;;;;;;;;;11.10;89.20;;;;;;4976221;28;19973;-79
2021/01/14 01:34:31;;;;;;;;;;;11.20;88.50;;;;;;4977545;28;19932;-81
2021/01/14 01:36:58;;;;;;;;;;;11.20;88.40;;;;;;4977277;28;19926;-80
2021/01/14 01:39:24;;;;;;;;;;;11.20;88.40;;;;;;4977683;28;19926;-80
2021/01/14 01:41:55;;;;;;;;;;;11.20;88.50;;;;;;4976649;28;19930;-80
2021/01/14 01:44:24;;;;;;;;;;;11.20;89.40;;;;;;4976660;28;20326;-79
2021/01/14 01:47:01;;;;;;;;;;;11.20;88.50;;;;;;4976664;28;19993;-80
2021/01/14 01:49:28;;;;;;;;;;;11.30;88.50;;;;;;4976333;28;19954;-80
2021/01/14 01:51:54;;;;;;;;;;;11.20;88.50;;;;;;4980278;28;19926;-79
2021/01/14 01:54:23;;;;;;;;;;;11.20;89.20;;;;;;4979571;28;19926;-80
2021/01/14 01:56:52;;;;;;;;;;;11.20;89.00;;;;;;4978847;28;19933;-80
2021/01/14 01:59:21;;;;;;;;;;;11.20;89.60;;;;;;4979759;28;19977;-79
2021/01/14 02:01:47;;;;;;;;;;;11.10;89.70;;;;;;4982035;28;19988;-81
2021/01/14 02:04:13;;;;;;;;;;;11.20;89.70;;;;;;4980328;28;19926;-79
2021/01/14 02:07:01;;;;;;;;;;;11.10;89.80;;;;;;4979600;28;20267;-80
2021/01/14 02:09:27;;;;;;;;;;;11.00;90.10;;;;;;4980621;28;19961;-81
2021/01/14 02:12:04;;;;;;;;;;;11.20;90.00;;;;;;4983888;28;19930;-81
2021/01/14 02:14:33;;;;;;;;;;;11.20;89.70;;;;;;4985096;28;19933;-79
2021/01/14 02:17:00;;;;;;;;;;;11.10;90.00;;;;;;4985201;28;19973;-81
2021/01/14 02:19:40;;;;;;;;;;;11.10;89.50;;;;;;4988623;28;19934;-81
2021/01/14 02:22:15;;;;;;;;;;;11.10;89.50;;;;;;4987491;28;19926;-81
2021/01/14 02:24:46;;;;;;;;;;;11.70;89.90;;;;;;4986476;28;19972;-81
2021/01/14 02:27:12;;;;;;;;;;;11.00;89.00;;;;;;4986627;28;19950;-81
2021/01/14 02:29:38;;;;;;;;;;;11.30;89.30;;;;;;4986797;28;20371;-81
2021/01/14 02:32:14;;;;;;;;;;;11.10;89.10;;;;;;4985895;28;19926;-81
2021/01/14 02:34:40;;;;;;;;;;;11.10;88.50;;;;;;4985962;28;19926;-81
2021/01/14 02:37:06;;;;;;;;;;;11.10;88.20;;;;;;4987539;28;19957;-81
2021/01/14 02:39:34;;;;;;;;;;;11.10;87.70;;;;;;4985297;28;19930;-79
2021/01/14 02:42:00;;;;;;;;;;;11.20;87.60;;;;;;4982439;28;19985;-79
2021/01/14 02:44:27;;;;;;;;;;;11.20;87.00;;;;;;4981846;28;20345;-78
2021/01/14 02:46:53;;;;;;;;;;;12.10;87.20;;;;;;4983600;28;19926;-81
2021/01/14 02:49:19;;;;;;;;;;;11.30;86.60;;;;;;4986498;28;19926;-81
2021/01/14 02:51:47;;;;;;;;;;;11.20;86.60;;;;;;4988452;28;19962;-81
2021/01/14 02:54:16;;;;;;;;;;;11.20;86.80;;;;;;4990968;28;19933;-80
2021/01/14 02:56:43;;;;;;;;;;;11.20;87.50;;;;;;4987739;28;19953;-81
2021/01/14 02:59:10;;;;;;;;;;;11.20;87.10;;;;;;4983896;28;19933;-80
2021/01/14 03:01:36;;;;;;;;;;;11.20;86.90;;;;;;4981713;28;20029;-80
2021/01/14 03:04:05;;;;;;;;;;;11.10;87.80;;;;;;4984126;28;20009;-81
2021/01/14 03:06:31;;;;;;;;;;;11.10;87.80;;;;;;4983696;28;19953;-81
2021/01/14 03:08:58;;;;;;;;;;;11.20;87.40;;;;;;4982544;28;19926;-81
2021/01/14 03:11:24;;;;;;;;;;;11.20;87.60;;;;;;4982217;28;19994;-80
2021/01/14 03:13:51;;;;;;;;;;;11.10;87.90;;;;;;4983999;28;19953;-80
2021/01/14 03:16:17;;;;;;;;;;;11.20;88.00;;;;;;4982846;28;19933;-81
2021/01/14 03:18:43;;;;;;;;;;;12.10;88.00;;;;;;4981661;28;19986;-80
2021/01/14 03:21:32;;;;;;;;;;;11.30;87.50;;;;;;4977572;28;19926;-80
2021/01/14 03:23:58;;;;;;;;;;;11.10;88.10;;;;;;4980064;28;19976;-80
2021/01/14 03:26:25;;;;;;;;;;;11.20;87.90;;;;;;4977680;28;19961;-79
2021/01/14 03:28:52;;;;;;;;;;;11.20;88.20;;;;;;4978355;28;19926;-80
2021/01/14 03:31:19;;;;;;;;;;;11.10;88.00;;;;;;4978865;28;20393;-80
2021/01/14 03:33:46;;;;;;;;;;;11.20;87.80;;;;;;4977979;28;19933;-79
2021/01/14 03:36:19;;;;;;;;;;;11.10;88.10;;;;;;4978898;28;19930;-80
2021/01/14 03:38:46;;;;;;;;;;;11.00;88.10;;;;;;4978277;28;19980;-80
2021/01/14 03:41:14;;;;;;;;;;;11.10;88.10;;;;;;4978332;28;20040;-79
2021/01/14 03:43:41;;;;;;;;;;;11.00;88.10;;;;;;4977120;28;19926;-80
2021/01/14 03:46:09;;;;;;;;;;;11.30;88.50;;;;;;4977715;28;20342;-79
2021/01/14 03:48:40;;;;;;;;;;;11.10;88.20;;;;;;4990767;28;19940;-81
2021/01/14 03:51:14;;;;;;;;;;;11.20;87.60;;;;;;4980895;28;20398;-81
2021/01/14 03:53:41;;;;;;;;;;;11.20;87.40;;;;;;4978767;28;19926;-79
2021/01/14 03:56:07;;;;;;;;;;;11.30;87.40;;;;;;4978772;28;19930;-78
2021/01/14 03:58:34;;;;;;;;;;;11.50;87.80;;;;;;4977215;28;20417;-78
2021/01/14 04:01:01;;;;;;;;;;;11.00;88.10;;;;;;4976267;28;19927;-78
2021/01/14 04:03:27;;;;;;;;;;;11.00;88.70;;;;;;4978102;28;19926;-78
2021/01/14 04:05:53;;;;;;;;;;;10.90;88.90;;;;;;4978979;28;19926;-79
2021/01/14 04:08:21;;;;;;;;;;;11.10;88.50;;;;;;4978676;28;19926;-79
2021/01/14 04:10:47;;;;;;;;;;;11.10;88.10;;;;;;4978717;28;19953;-79
2021/01/14 04:13:14;;;;;;;;;;;11.10;88.00;;;;;;4977480;28;19961;-79
2021/01/14 04:15:41;;;;;;;;;;;11.10;87.90;;;;;;4977549;28;19926;-79
2021/01/14 04:18:07;;;;;;;;;;;11.00;89.00;;;;;;4976612;28;20351;-79
2021/01/14 04:20:34;;;;;;;;;;;11.00;88.80;;;;;;4976753;28;19926;-79
2021/01/14 04:23:02;;;;;;;;;;;11.00;88.80;;;;;;4975620;28;19997;-79
2021/01/14 04:25:32;;;;;;;;;;;11.00;89.70;;;;;;4976863;28;20038;-78
2021/01/14 04:28:01;;;;;;;;;;;11.00;89.70;;;;;;4977024;28;19926;-80
2021/01/14 04:30:31;;;;;;;;;;;11.10;89.40;;;;;;4976014;28;19930;-79
2021/01/14 04:33:11;;;;;;;;;;;11.70;90.00;;;;;;4976229;28;20298;-80
2021/01/14 04:35:47;;;;;;;;;;;11.00;89.30;;;;;;4976794;28;19930;-79
2021/01/14 04:38:14;;;;;;;;;;;10.90;90.30;;;;;;4976980;28;20017;-80
2021/01/14 04:40:41;;;;;;;;;;;10.80;90.50;;;;;;4978175;28;19950;-80
2021/01/14 04:43:09;;;;;;;;;;;10.80;90.90;;;;;;4977089;28;19925;-79
2021/01/14 04:45:39;;;;;;;;;;;10.90;91.20;;;;;;4977460;28;19973;-79
2021/01/14 04:48:06;;;;;;;;;;;10.60;92.00;;;;;;4982572;28;19976;-79
2021/01/14 04:50:32;;;;;;;;;;;10.50;91.70;;;;;;4994183;28;19930;-78
2021/01/14 04:52:59;;;;;;;;;;;10.50;91.80;;;;;;4995863;28;20408;-80
2021/01/14 04:55:28;;;;;;;;;;;10.50;91.60;;;;;;4996038;28;20364;-79
2021/01/14 04:57:54;;;;;;;;;;;10.50;91.50;;;;;;4998048;28;19926;-80
2021/01/14 05:00:23;;;;;;;;;;;10.90;91.20;;;;;;4999997;28;20408;-79
2021/01/14 05:03:02;;;;;;;;;;;10.50;91.40;;;;;;5004693;28;19926;-79
2021/01/14 05:05:31;;;;;;;;;;;10.50;91.20;;;;;;5005143;28;19926;-80
2021/01/14 05:08:07;;;;;;;;;;;10.60;90.80;;;;;;4996836;28;19930;-79
2021/01/14 05:10:35;;;;;;;;;;;10.70;90.60;;;;;;4994866;28;19925;-79
2021/01/14 05:13:01;;;;;;;;;;;10.70;90.80;;;;;;4992895;28;19936;-79
2021/01/14 05:15:28;;;;;;;;;;;10.70;90.70;;;;;;4992321;28;20008;-79
2021/01/14 05:17:58;;;;;;;;;;;10.70;90.30;;;;;;4993961;28;19926;-79
2021/01/14 05:20:25;;;;;;;;;;;10.80;89.70;;;;;;4993805;28;19973;-79
2021/01/14 05:22:56;;;;;;;;;;;10.80;89.90;;;;;;4993855;28;19926;-79
2021/01/14 05:25:22;;;;;;;;;;;10.80;90.10;;;;;;4992837;28;20301;-79
2021/01/14 05:27:48;;;;;;;;;;;10.70;90.30;;;;;;4993557;28;19929;-79
2021/01/14 05:30:18;;;;;;;;;;;11.30;90.70;;;;;;4992106;28;19948;-79
2021/01/14 05:32:45;;;;;;;;;;;10.60;90.60;;;;;;4992347;28;19926;-79
2021/01/14 05:35:16;;;;;;;;;;;10.80;90.10;;;;;;4993288;28;19933;-79
2021/01/14 05:37:44;;;;;;;;;;;10.80;89.60;;;;;;4993243;28;20448;-78
2021/01/14 05:40:21;;;;;;;;;;;10.70;90.00;;;;;;4993447;28;20024;-79
2021/01/14 05:43:08;;;;;;;;;;;10.70;90.00;;;;;;4992990;28;19980;-79
2021/01/14 05:45:35;;;;;;;;;;;10.80;90.30;;;;;;4993680;28;19926;-79
2021/01/14 05:48:12;;;;;;;;;;;10.70;90.20;;;;;;4991971;28;19964;-79
2021/01/14 05:50:44;;;;;;;;;;;10.70;90.40;;;;;;4991972;28;19980;-79
2021/01/14 05:53:15;;;;;;;;;;;10.60;90.50;;;;;;4996469;28;19969;-79
2021/01/14 05:55:43;;;;;;;;;;;10.60;90.30;;;;;;4998124;28;19981;-79
2021/01/14 05:58:16;;;;;;;;;;;10.70;90.30;;;;;;4994638;28;19965;-79
2021/01/14 06:00:44;;;;;;;;;;;10.60;90.30;;;;;;4991826;28;20425;-79
2021/01/14 06:03:26;;;;;;;;;;;10.80;90.00;;;;;;4991279;28;19926;-79
2021/01/14 06:05:53;;;;;;;;;;;10.70;90.00;;;;;;4992981;28;19934;-79
2021/01/14 06:08:20;;;;;;;;;;;10.70;89.90;;;;;;4993317;28;20024;-79
2021/01/14 06:10:47;;;;;;;;;;;10.80;90.00;;;;;;4996602;28;19968;-79
2021/01/14 06:13:14;;;;;;;;;;;10.60;90.30;;;;;;4995670;28;20408;-80
2021/01/14 06:15:41;;;;;;;;;;;10.70;89.70;;;;;;4992729;28;19925;-80
2021/01/14 06:18:09;;;;;;;;;;;10.80;90.10;;;;;;4992073;28;19980;-79
2021/01/14 06:20:55;;;;;;;;;;;10.80;89.30;;;;;;4994063;28;20021;-79
2021/01/14 06:23:22;;;;;;;;;;;10.60;88.20;;;;;;4996437;28;19932;-79
2021/01/14 06:25:53;;;;;;;;;;;10.90;88.70;;;;;;4995086;28;19926;-79
2021/01/14 06:28:20;;;;;;;;;;;10.90;88.70;;;;;;4994982;28;19984;-79
2021/01/14 06:31:01;;;;;;;;;;;11.00;88.10;;;;;;4998403;28;19926;-79
2021/01/14 06:33:29;;;;;;;;;;;11.00;87.80;;;;;;4997186;28;19953;-80
2021/01/14 06:36:07;;;;;;;;;;;11.00;87.60;;;;;;4980950;28;19957;-79
2021/01/14 06:38:44;;;;;;;;;;;11.00;87.80;;;;;;4998868;28;19972;-80
2021/01/14 06:41:20;;;;;;;;;;;11.00;87.30;;;;;;5002151;28;19926;-80
2021/01/14 06:43:51;;;;;;;;;;;11.10;87.10;;;;;;5001217;28;19972;-80
2021/01/14 06:46:19;;;;;;;;;;;11.00;87.30;;;;;;4998687;28;19933;-79
2021/01/14 06:48:55;;;;;;;;;;;11.10;86.80;;;;;;5000141;28;19977;-79
2021/01/14 06:51:28;;;;;;;;;;;11.10;86.60;;;;;;5002265;28;20028;-79
2021/01/14 06:54:01;;;;;;;;;;;11.00;87.50;;;;;;5001772;28;19932;-79
2021/01/14 06:56:35;;;;;;;;;;;11.10;86.70;;;;;;5001031;28;19988;-79
2021/01/14 06:59:05;;;;;;;;;;;11.20;85.80;;;;;;4999531;28;19977;-79
2021/01/14 07:01:35;;;;;;;;;;;11.30;85.90;;;;;;5001635;28;19930;-78
2021/01/14 07:04:03;;;;;;;;;;;11.20;85.70;;;;;;5000754;28;19930;-79
2021/01/14 07:06:32;;;;;;;;;;;11.20;85.60;;;;;;5003122;28;19957;-78
2021/01/14 07:09:16;;;;;;;;;;;11.20;85.80;;;;;;5002561;28;19926;-78
2021/01/14 07:11:42;;;;;;;;;;;11.20;86.00;;;;;;5003982;28;20022;-78
2021/01/14 07:14:13;;;;;;;;;;;11.10;85.30;;;;;;5006855;28;19926;-80
2021/01/14 07:16:43;;;;;;;;;;;11.10;85.80;;;;;;5007746;28;19925;-78
2021/01/14 07:19:09;;;;;;;;;;;11.20;85.70;;;;;;5001562;28;19930;-78
2021/01/14 07:21:37;;;;;;;;;;;11.20;85.60;;;;;;5001425;28;20275;-77
2021/01/14 07:24:18;;;;;;;;;;;11.20;85.80;;;;;;5001028;28;19929;-77
2021/01/14 07:26:45;;;;;;;;;;;11.20;85.30;;;;;;5000666;28;19930;-77
2021/01/14 07:29:13;;;;;;;;;;;11.20;85.70;;;;;;4999602;28;19991;-77
2021/01/14 07:31:46;;;;;;;;;;;11.20;85.40;;;;;;4998235;28;20436;-77
2021/01/14 07:34:25;;;;;;;;;;;11.20;85.60;;;;;;4998012;28;19965;-77
2021/01/14 07:37:04;;;;;;;;;;;11.20;85.00;;;;;;4998363;28;19969;-77
2021/01/14 07:39:45;;;;;;;;;;;11.30;85.30;;;;;;4998383;28;20012;-79
2021/01/14 07:42:31;;;;;;;;;;;11.20;85.60;;;;;;4999133;28;19961;-77
2021/01/14 07:44:59;;;;;;;;;;;11.40;84.80;;;;;;5001252;28;19926;-80
2021/01/14 07:47:26;;;;;;;;;;;11.30;85.30;;;;;;5000458;28;20283;-78
2021/01/14 07:49:53;;;;;;;;;;;11.30;84.70;;;;;;4991700;28;19973;-78
2021/01/14 07:52:32;;;;;;;;;;;11.30;84.40;;;;;;4996177;28;20045;-78
2021/01/14 07:54:59;;;;;;;;;;;11.10;85.10;;;;;;4996409;28;19989;-78
2021/01/14 07:57:28;;;;;;;;;;;11.00;86.00;;;;;;4997320;28;20037;-78
2021/01/14 07:59:57;;;;;;;;;;;11.20;85.00;;;;;;5002701;28;19930;-78
2021/01/14 08:02:24;;;;;;;;;;;11.30;84.70;;;;;;4998056;28;20282;-79
2021/01/14 08:04:53;;;;;;;;;;;11.20;85.00;;;;;;4998410;28;19930;-78
2021/01/14 08:07:23;;;;;;;;;;;11.30;84.50;;;;;;5005305;28;19926;-80
2021/01/14 08:09:50;;;;;;;;;;;11.30;85.00;;;;;;4997600;28;20421;-77
2021/01/14 08:12:18;;;;;;;;;;;11.30;84.60;;;;;;4996999;28;19957;-78
2021/01/14 08:14:45;;;;;;;;;;;11.20;84.90;;;;;;4996369;28;19938;-77
2021/01/14 08:17:25;;;;;;;;;;;11.20;85.00;;;;;;4997174;28;19949;-79
2021/01/14 08:19:51;;;;;;;;;;;11.20;85.50;;;;;;4998077;28;19984;-79
2021/01/14 08:22:18;;;;;;;;;;;11.30;85.30;;;;;;4997659;28;19985;-78
2021/01/14 08:24:53;;;;;;;;;;;11.20;84.80;;;;;;4998612;28;19980;-77
2021/01/14 08:27:32;;;;;;;;;;;11.20;84.40;;;;;;4995242;28;19926;-78
2021/01/14 08:29:59;;;;;;;;;;;11.10;85.20;;;;;;4995835;28;19926;-78
2021/01/14 08:32:25;;;;;;;;;;;11.30;84.70;;;;;;4994658;28;19926;-78
2021/01/14 08:34:53;;;;;;;;;;;11.40;84.00;;;;;;4995013;28;19926;-78
2021/01/14 08:37:36;;;;;;;;;;;11.20;84.40;;;;;;4994780;28;20349;-77
2021/01/14 08:40:13;;;;;;;;;;;11.40;84.30;;;;;;4994611;28;19926;-77
2021/01/14 08:42:40;;;;;;;;;;;11.20;84.10;;;;;;4994502;28;19980;-77
2021/01/14 08:45:07;;;;;;;;;;;11.20;84.30;;;;;;4994580;28;19949;-77
2021/01/14 08:47:52;;;;;;;;;;;11.40;83.90;;;;;;4993337;28;19932;-77
2021/01/14 08:50:31;;;;;;;;;;;11.30;83.80;;;;;;4994299;28;20367;-77
2021/01/14 08:52:58;;;;;;;;;;;11.40;83.40;;;;;;4994434;28;19956;-78
2021/01/14 08:55:25;;;;;;;;;;;11.40;83.40;;;;;;4993977;28;19926;-77
2021/01/14 08:57:52;;;;;;;;;;;11.40;83.70;;;;;;4993942;28;20020;-77
2021/01/14 09:00:19;;;;;;;;;;;11.50;83.70;;;;;;4993260;28;20012;-78
2021/01/14 09:02:45;;;;;;;;;;;11.30;83.50;;;;;;4993359;28;19980;-77
2021/01/14 09:05:12;;;;;;;;;;;11.50;82.90;;;;;;4994540;28;19932;-77
2021/01/14 09:07:40;;;;;;;;;;;11.60;82.70;;;;;;4994849;28;19934;-78
2021/01/14 09:10:11;;;;;;;;;;;11.40;82.30;;;;;;4995154;28;19965;-77
2021/01/14 09:12:37;;;;;;;;;;;11.70;82.20;;;;;;4994914;28;19945;-77
2021/01/14 09:15:04;;;;;;;;;;;11.50;82.50;;;;;;4995132;28;20433;-77
2021/01/14 09:17:34;;;;;;;;;;;11.40;83.40;;;;;;4993454;28;19926;-77
2021/01/14 09:20:01;;;;;;;;;;;11.50;82.70;;;;;;4994056;28;20041;-78
2021/01/14 09:22:27;;;;;;;;;;;11.80;82.00;;;;;;4994376;28;19972;-78
2021/01/14 09:24:53;;;;;;;;;;;11.80;81.80;;;;;;4996174;28;20009;-77
2021/01/14 09:27:25;;;;;;;;;;;12.20;81.50;;;;;;4998341;28;19933;-77
2021/01/14 09:29:51;;;;;;;;;;;12.10;81.30;;;;;;4994208;28;20025;-77
2021/01/14 09:32:17;;;;;;;;;;;12.00;81.70;;;;;;4994005;28;19980;-77
2021/01/14 09:34:43;;;;;;;;;;;12.10;81.30;;;;;;4992041;28;19956;-77
2021/01/14 09:37:17;;;;;;;;;;;12.20;81.10;;;;;;4992056;28;19926;-77
2021/01/14 09:39:44;;;;;;;;;;;12.40;80.60;;;;;;4993396;28;19977;-76
2021/01/14 09:42:13;;;;;;;;;;;12.40;80.10;;;;;;4993035;28;19925;-77
2021/01/14 09:44:39;;;;;;;;;;;12.30;80.90;;;;;;4993895;28;19953;-77
2021/01/14 09:47:08;;;;;;;;;;;12.00;82.10;;;;;;4995575;28;20266;-78
2021/01/14 09:49:35;;;;;;;;;;;12.00;82.20;;;;;;4992943;28;19980;-78
2021/01/14 09:52:01;;;;;;;;;;;12.00;82.60;;;;;;4992619;28;20363;-78
2021/01/14 09:54:28;;;;;;;;;;;12.10;82.10;;;;;;4992650;28;20017;-78
2021/01/14 09:56:55;;;;;;;;;;;11.90;82.90;;;;;;4993061;28;19980;-78
2021/01/14 09:59:30;;;;;;;;;;;11.90;82.60;;;;;;4993125;28;19926;-78
2021/01/14 10:02:02;;;;;;;;;;;11.70;82.60;;;;;;4992813;28;19930;-78
2021/01/14 10:04:29;;;;;;;;;;;12.00;82.50;;;;;;4991312;28;19964;-78
2021/01/14 10:06:57;;;;;;;;;;;12.00;82.70;;;;;;4993065;28;20029;-77
2021/01/14 10:09:24;;;;;;;;;;;12.00;83.00;;;;;;4992815;28;20735;-77
2021/01/14 10:11:51;;;;;;;;;;;11.70;83.40;;;;;;4994858;28;19933;-78
2021/01/14 10:14:22;;;;;;;;;;;11.70;83.60;;;;;;4996136;28;19972;-78
2021/01/14 10:16:49;;;;;;;;;;;11.60;83.70;;;;;;4996347;28;19926;-77
2021/01/14 10:19:18;;;;;;;;;;;11.60;83.80;;;;;;4996487;28;19984;-78
2021/01/14 10:21:46;;;;;;;;;;;11.60;84.60;;;;;;4979024;28;20032;-78
2021/01/14 10:24:25;;;;;;;;;;;11.40;84.40;;;;;;4995171;28;20441;-78
2021/01/14 10:26:52;;;;;;;;;;;11.40;84.80;;;;;;4997381;28;19976;-78
2021/01/14 10:29:38;;;;;;;;;;;11.50;84.80;;;;;;4997425;28;20398;-78
2021/01/14 10:32:08;;;;;;;;;;;11.40;84.90;;;;;;4996176;28;20024;-78
2021/01/14 10:34:38;;;;;;;;;;;11.60;84.60;;;;;;4995185;28;19926;-78
2021/01/14 10:37:04;;;;;;;;;;;11.70;83.70;;;;;;4996136;28;20033;-78
2021/01/14 10:39:39;;;;;;;;;;;11.80;83.60;;;;;;4996091;28;19926;-78
2021/01/14 10:42:29;;;;;;;;;;;11.90;83.00;;;;;;4995648;28;19935;-78
2021/01/14 10:44:56;;;;;;;;;;;11.70;84.80;;;;;;4986720;28;19926;-78
2021/01/14 10:47:23;;;;;;;;;;;11.70;84.40;;;;;;4997062;28;19973;-78
2021/01/14 10:49:49;;;;;;;;;;;11.50;86.00;;;;;;4995252;28;19992;-78
2021/01/14 10:52:15;;;;;;;;;;;12.50;86.60;;;;;;5001934;28;19949;-77
2021/01/14 10:54:42;;;;;;;;;;;11.50;85.80;;;;;;5002708;28;20290;-77
2021/01/14 10:57:08;;;;;;;;;;;11.70;85.20;;;;;;5000694;28;19940;-77
2021/01/14 10:59:34;;;;;;;;;;;11.50;86.10;;;;;;5000129;28;19929;-79
2021/01/14 11:02:09;;;;;;;;;;;11.60;87.80;;;;;;5001044;28;19930;-78
2021/01/14 11:04:35;;;;;;;;;;;11.50;86.80;;;;;;4997846;28;20024;-78
2021/01/14 11:07:12;;;;;;;;;;;11.50;86.90;;;;;;4997802;28;20401;-79
2021/01/14 11:09:48;;;;;;;;;;;11.50;86.50;;;;;;5000428;28;19926;-78
2021/01/14 11:12:14;;;;;;;;;;;11.50;86.10;;;;;;5002817;28;19926;-78
2021/01/14 11:14:56;;;;;;;;;;;11.60;86.20;;;;;;4999456;28;19926;-78
2021/01/14 11:17:22;;;;;;;;;;;11.70;86.00;;;;;;4999762;28;19926;-79
2021/01/14 11:20:02;;;;;;;;;;;11.70;86.00;;;;;;5001490;28;20032;-78
2021/01/14 11:22:28;;;;;;;;;;;11.80;88.10;;;;;;5001797;28;19933;-79
2021/01/14 11:24:54;;;;;;;;;;;11.50;87.90;;;;;;5001226;28;19929;-78
2021/01/14 11:27:21;;;;;;;;;;;11.40;90.00;;;;;;5000031;28;19926;-78
2021/01/14 11:29:47;;;;;;;;;;;11.30;89.00;;;;;;5001498;28;19972;-78
2021/01/14 11:32:13;;;;;;;;;;;11.20;90.60;;;;;;5004510;28;19930;-78
2021/01/14 11:34:41;;;;;;;;;;;11.10;91.50;;;;;;5001538;28;19972;-79
2021/01/14 11:37:07;;;;;;;;;;;11.30;92.20;;;;;;4999828;28;19970;-78
2021/01/14 11:39:33;;;;;;;;;;;11.10;91.80;;;;;;4997040;28;19930;-79
2021/01/14 11:41:59;;;;;;;;;;;11.00;90.90;;;;;;4996318;28;20279;-78
2021/01/14 11:44:25;;;;;;;;;;;11.20;90.40;;;;;;4996207;28;19972;-78
2021/01/14 11:46:52;;;;;;;;;;;11.40;90.70;;;;;;4994191;28;19925;-78
2021/01/14 11:49:18;;;;;;;;;;;11.50;90.70;;;;;;4995348;28;20433;-78
2021/01/14 11:51:53;;;;;;;;;;;11.40;90.80;;;;;;4995889;28;20460;-79
2021/01/14 11:54:20;;;;;;;;;;;11.60;91.00;;;;;;4994626;28;19932;-78
2021/01/14 11:56:50;;;;;;;;;;;11.60;91.00;;;;;;4996836;28;19972;-78
2021/01/14 11:59:18;;;;;;;;;;;11.60;90.70;;;;;;4997254;28;20385;-79
2021/01/14 12:01:49;;;;;;;;;;;11.50;90.20;;;;;;4995489;28;19930;-78
2021/01/14 12:04:15;;;;;;;;;;;11.70;90.20;;;;;;4995895;28;19926;-78
2021/01/14 12:06:41;;;;;;;;;;;11.70;89.10;;;;;;4994727;28;19926;-78
2021/01/14 12:09:07;;;;;;;;;;;11.90;87.40;;;;;;4994816;28;20457;-77
2021/01/14 12:11:33;;;;;;;;;;;12.00;86.30;;;;;;4995265;28;20363;-77
2021/01/14 12:14:00;;;;;;;;;;;12.00;86.30;;;;;;4996106;28;19929;-78
2021/01/14 12:16:29;;;;;;;;;;;12.00;85.80;;;;;;4995403;28;20464;-79
2021/01/14 12:19:12;;;;;;;;;;;12.20;84.90;;;;;;4996676;28;19930;-78
2021/01/14 12:21:43;;;;;;;;;;;12.40;84.50;;;;;;4995311;28;20337;-79
2021/01/14 12:24:09;;;;;;;;;;;12.50;83.40;;;;;;4996319;28;20305;-78
2021/01/14 12:26:36;;;;;;;;;;;12.90;82.30;;;;;;4998572;28;20000;-80
2021/01/14 12:29:03;;;;;;;;;;;12.70;81.90;;;;;;4995446;28;19937;-78
2021/01/14 12:31:33;;;;;;;;;;;12.80;81.70;;;;;;4995978;28;19926;-78
2021/01/14 12:33:59;;;;;;;;;;;12.90;81.40;;;;;;4996136;28;19933;-79
2021/01/14 12:36:31;;;;;;;;;;;13.10;81.50;;;;;;4993447;28;19925;-78
2021/01/14 12:39:00;;;;;;;;;;;13.00;81.20;;;;;;4994033;28;19926;-77
2021/01/14 12:41:32;;;;;;;;;;;12.80;82.50;;;;;;4995718;28;20359;-78
2021/01/14 12:43:59;;;;;;;;;;;12.80;82.30;;;;;;5006073;28;19973;-80
2021/01/14 12:46:48;;;;;;;;;;;13.00;81.90;;;;;;4998830;28;19926;-80
2021/01/14 12:49:15;;;;;;;;;;;13.40;80.30;;;;;;4996793;28;19926;-79
2021/01/14 12:51:45;;;;;;;;;;;13.30;80.30;;;;;;5002629;28;19933;-77
2021/01/14 12:54:11;;;;;;;;;;;13.40;79.90;;;;;;4996354;28;19973;-80
2021/01/14 12:56:38;;;;;;;;;;;13.60;79.40;;;;;;4997436;28;19926;-80
2021/01/14 12:59:05;;;;;;;;;;;13.40;79.50;;;;;;5003855;28;19933;-77
2021/01/14 13:01:32;;;;;;;;;;;13.40;79.60;;;;;;4995236;28;20437;-78
2021/01/14 13:03:59;;;;;;;;;;;13.30;79.60;;;;;;4994109;28;19926;-78
2021/01/14 13:06:26;;;;;;;;;;;13.00;81.20;;;;;;4993628;28;19964;-78
2021/01/14 13:08:53;;;;;;;;;;;13.00;81.90;;;;;;4994345;28;20422;-78
2021/01/14 13:11:22;;;;;;;;;;;13.00;81.70;;;;;;4994421;28;20417;-78
2021/01/14 13:13:51;;;;;;;;;;;13.30;81.40;;;;;;4993941;28;19929;-78
2021/01/14 13:16:17;;;;;;;;;;;13.00;82.70;;;;;;4996420;28;19933;-78
2021/01/14 13:18:44;;;;;;;;;;;13.00;82.50;;;;;;4994027;28;20004;-78
2021/01/14 13:21:10;;;;;;;;;;;14.00;82.50;;;;;;4994881;28;20029;-78
2021/01/14 13:23:36;;;;;;;;;;;13.00;82.50;;;;;;4993685;28;19972;-78
2021/01/14 13:26:09;;;;;;;;;;;13.00;82.40;;;;;;4993915;28;19933;-78
2021/01/14 13:28:37;;;;;;;;;;;13.00;83.10;;;;;;4993167;28;19926;-79
2021/01/14 13:31:03;;;;;;;;;;;13.20;83.20;;;;;;4993681;28;20389;-79
2021/01/14 13:33:29;;;;;;;;;;;13.10;82.60;;;;;;4992455;28;20378;-79
2021/01/14 13:35:58;;;;;;;;;;;13.20;83.00;;;;;;4993121;28;20411;-79
2021/01/14 13:38:25;;;;;;;;;;;13.00;83.50;;;;;;4995833;28;19976;-80
2021/01/14 13:40:51;;;;;;;;;;;13.00;83.80;;;;;;4999236;28;19926;-77
2021/01/14 13:43:17;;;;;;;;;;;13.00;83.80;;;;;;5000054;28;19929;-80
2021/01/14 13:45:43;;;;;;;;;;;13.30;82.90;;;;;;4997360;28;19957;-78
2021/01/14 13:48:10;;;;;;;;;;;12.90;84.30;;;;;;4998791;28;19926;-79
2021/01/14 13:50:37;;;;;;;;;;;13.00;84.30;;;;;;4997978;28;19972;-78
2021/01/14 13:53:04;;;;;;;;;;;13.10;85.40;;;;;;4998552;28;19930;-79
2021/01/14 13:55:30;;;;;;;;;;;13.00;85.80;;;;;;4998086;28;19988;-79
2021/01/14 13:57:57;;;;;;;;;;;13.00;85.80;;;;;;4997524;28;20345;-79
2021/01/14 14:00:23;;;;;;;;;;;12.90;87.40;;;;;;4997274;28;19929;-79
2021/01/14 14:02:49;;;;;;;;;;;12.80;87.80;;;;;;4999217;28;20023;-80
2021/01/14 14:05:15;;;;;;;;;;;13.00;89.30;;;;;;4997450;28;19965;-78
2021/01/14 14:07:43;;;;;;;;;;;13.10;88.70;;;;;;4996960;28;20012;-79
2021/01/14 14:10:10;;;;;;;;;;;13.40;85.80;;;;;;4997814;28;19972;-79
2021/01/14 14:12:38;;;;;;;;;;;13.40;84.90;;;;;;4998124;28;19930;-79
2021/01/14 14:15:05;;;;;;;;;;;13.80;83.10;;;;;;4996534;28;20345;-78
2021/01/14 14:17:31;;;;;;;;;;;14.70;78.80;;;;;;4997173;28;19949;-79
2021/01/14 14:19:58;;;;;;;;;;;14.80;77.70;;;;;;4997327;28;19996;-79
2021/01/14 14:22:24;;;;;;;;;;;15.20;77.30;;;;;;4995540;28;20457;-78
2021/01/14 14:24:50;;;;;;;;;;;15.30;76.20;;;;;;4997321;28;19933;-78
2021/01/14 14:27:16;;;;;;;;;;;15.40;75.00;;;;;;4996712;28;19941;-77